createdAt,value
2019-03-26T00:04:51.410Z,7.43
2019-03-26T00:07:19.891Z,6.67
2019-03-26T00:10:07.556Z,7.50
2019-03-26T00:12:35.959Z,6.60
2019-03-26T00:15:44.278Z,7.37
2019-03-26T00:18:12.692Z,7.00
2019-03-26T00:21:00.349Z,6.20
2019-03-26T00:23:47.872Z,6.57
2019-03-26T00:26:16.284Z,6.60
2019-03-26T00:29:04.032Z,6.70
2019-03-26T00:31:32.434Z,6.30
2019-03-26T00:36:34.734Z,5.57
2019-03-26T00:41:38.609Z,6.13
2019-03-26T00:44:07.041Z,5.30
2019-03-26T00:46:35.419Z,6.50
2019-03-26T00:49:03.828Z,4.30
2019-03-26T00:51:51.337Z,4.40
2019-03-26T00:54:19.744Z,4.80
2019-03-26T00:57:07.479Z,4.30
2019-03-26T00:59:55.137Z,4.93
2019-03-26T01:02:42.780Z,4.47
2019-03-26T01:08:25.270Z,5.60
2019-03-26T01:10:53.669Z,5.33
2019-03-26T01:13:22.069Z,5.23
2019-03-26T01:15:50.479Z,4.07
2019-03-26T01:18:18.900Z,4.60
2019-03-26T01:20:47.313Z,4.73
2019-03-26T01:23:34.958Z,4.40
2019-03-26T01:28:37.009Z,4.70
2019-03-26T01:31:45.321Z,4.37
2019-03-26T01:34:13.727Z,4.33
2019-03-26T01:36:42.123Z,4.40
2019-03-26T01:39:10.528Z,4.63
2019-03-26T01:41:58.166Z,4.80
2019-03-26T01:47:01.044Z,4.87
2019-03-26T01:49:29.448Z,4.87
2019-03-26T01:51:57.843Z,3.43
2019-03-26T01:54:26.245Z,4.47
2019-03-26T01:57:13.888Z,4.40
2019-03-26T02:00:01.538Z,4.30
2019-03-26T02:02:49.179Z,4.10
2019-03-26T02:05:36.839Z,3.73
2019-03-26T02:11:11.800Z,3.67
2019-03-26T02:13:40.231Z,3.60
2019-03-26T02:16:27.893Z,4.57
2019-03-26T02:18:56.287Z,3.77
2019-03-26T02:22:04.609Z,4.40
2019-03-26T02:24:33.017Z,3.90
2019-03-26T02:30:49.432Z,3.20
2019-03-26T02:33:36.951Z,3.80
2019-03-26T02:36:05.359Z,3.47
2019-03-26T02:39:13.666Z,3.47
2019-03-26T02:41:42.078Z,4.13
2019-03-26T02:44:29.615Z,3.17
2019-03-26T02:46:58.022Z,3.30
2019-03-26T02:49:26.420Z,5.10
2019-03-26T02:54:47.357Z,4.10
2019-03-26T03:02:58.310Z,4.20
2019-03-26T03:05:34.975Z,4.30
2019-03-26T03:07:56.841Z,4.80
2019-03-26T03:10:25.239Z,4.63
2019-03-26T03:13:12.888Z,4.57
2019-03-26T03:16:00.536Z,3.80
2019-03-26T03:18:48.051Z,4.07
2019-03-26T03:21:16.463Z,4.27
2019-03-26T03:24:04.103Z,3.83
2019-03-26T03:29:25.804Z,4.53
2019-03-26T03:32:13.331Z,3.97
2019-03-26T03:35:00.943Z,4.03
2019-03-26T03:37:29.320Z,3.87
2019-03-26T03:40:16.855Z,5.73
2019-03-26T03:43:04.489Z,4.57
2019-03-26T03:45:52.177Z,4.80
2019-03-26T03:48:39.807Z,4.60
2019-03-26T03:51:48.123Z,4.60
2019-03-26T03:54:56.435Z,5.17
2019-03-26T03:58:04.736Z,3.87
2019-03-26T04:00:45.514Z,4.37
2019-03-26T04:03:25.715Z,3.03
2019-03-26T04:06:13.244Z,3.83
2019-03-26T04:08:41.641Z,5.17
2019-03-26T04:11:29.190Z,3.20
2019-03-26T04:14:16.830Z,4.13
2019-03-26T04:16:45.494Z,3.20
2019-03-26T04:19:13.882Z,3.77
2019-03-26T04:21:42.283Z,3.87
2019-03-26T04:24:29.797Z,3.73
2019-03-26T04:27:17.321Z,3.83
2019-03-26T04:30:04.857Z,3.77
2019-03-26T04:32:33.247Z,3.70
2019-03-26T04:35:20.910Z,4.43
2019-03-26T04:38:08.664Z,4.00
2019-03-26T04:40:56.188Z,4.07
2019-03-26T04:43:24.603Z,3.87
2019-03-26T04:46:12.329Z,3.47
2019-03-26T04:48:59.980Z,3.20
2019-03-26T04:51:28.386Z,3.80
2019-03-26T04:53:56.783Z,3.70
2019-03-26T04:56:25.194Z,4.07
2019-03-26T04:58:53.597Z,3.83
2019-03-26T05:01:34.081Z,5.10
2019-03-26T05:04:33.980Z,4.00
2019-03-26T05:07:30.621Z,4.63
2019-03-26T05:09:56.372Z,3.80
2019-03-26T05:12:27.929Z,3.97
2019-03-26T05:15:27.330Z,3.80
2019-03-26T05:20:48.517Z,3.50
2019-03-26T05:23:32.244Z,3.20
2019-03-26T05:26:22.163Z,3.83
2019-03-26T05:28:58.529Z,3.50
2019-03-26T05:31:46.186Z,3.67
2019-03-26T05:34:34.575Z,4.23
2019-03-26T05:37:09.570Z,2.80
2019-03-26T05:42:35.234Z,2.93
2019-03-26T05:45:15.435Z,3.23
2019-03-26T05:50:33.467Z,3.03
2019-03-26T05:53:04.088Z,3.43
2019-03-26T06:01:17.577Z,3.23
2019-03-26T06:07:12.571Z,4.20
2019-03-26T06:13:18.162Z,4.17
2019-03-26T06:21:08.495Z,3.97
2019-03-26T06:23:36.899Z,3.83
2019-03-26T06:26:24.411Z,2.73
2019-03-26T06:28:52.863Z,3.27
2019-03-26T06:31:40.391Z,3.83
2019-03-26T06:34:10.531Z,3.67
2019-03-26T06:36:58.033Z,5.00
2019-03-26T06:39:26.432Z,3.57
2019-03-26T06:41:54.843Z,2.93
2019-03-26T06:44:42.488Z,4.83
2019-03-26T06:47:10.894Z,4.43
2019-03-26T06:49:39.303Z,4.00
2019-03-26T06:54:41.727Z,3.23
2019-03-26T06:57:10.135Z,3.30
2019-03-26T06:59:38.532Z,3.40
2019-03-26T07:05:21.042Z,2.90
2019-03-26T07:07:49.458Z,3.70
2019-03-26T07:10:57.772Z,3.13
2019-03-26T07:13:26.187Z,4.73
2019-03-26T07:16:13.698Z,2.53
2019-03-26T07:18:42.104Z,3.17
2019-03-26T07:21:29.760Z,3.40
2019-03-26T07:23:58.198Z,3.00
2019-03-26T07:26:45.902Z,3.40
2019-03-26T07:29:14.319Z,3.43
2019-03-26T07:32:02.037Z,5.43
2019-03-26T07:34:30.418Z,3.87
2019-03-26T07:37:18.065Z,4.13
2019-03-26T07:39:46.473Z,4.10
2019-03-26T07:42:34.130Z,3.20
2019-03-26T07:45:02.532Z,3.43
2019-03-26T07:47:30.940Z,3.40
2019-03-26T07:49:59.343Z,3.83
2019-03-26T07:52:47.006Z,3.17
2019-03-26T07:55:15.404Z,2.50
2019-03-26T07:57:43.819Z,3.27
2019-03-26T08:00:52.123Z,2.87
2019-03-26T08:03:39.652Z,2.90
2019-03-26T08:09:14.788Z,2.73
2019-03-26T08:11:43.284Z,3.60
2019-03-26T08:14:11.669Z,3.60
2019-03-26T08:16:59.294Z,2.90
2019-03-26T08:19:46.983Z,3.00
2019-03-26T08:22:15.332Z,2.73
2019-03-26T08:25:02.861Z,3.50
2019-03-26T08:27:50.515Z,3.67
2019-03-26T08:30:18.926Z,3.23
2019-03-26T08:33:06.439Z,4.10
2019-03-26T08:38:27.673Z,3.50
2019-03-26T08:40:56.082Z,2.93
2019-03-26T08:43:24.558Z,3.97
2019-03-26T08:45:52.984Z,2.60
2019-03-26T08:48:21.381Z,4.20
2019-03-26T08:51:09.047Z,3.27
2019-03-26T08:53:56.565Z,4.30
2019-03-26T08:58:58.940Z,2.67
2019-03-26T09:01:27.360Z,3.90
2019-03-26T09:04:14.872Z,3.40
2019-03-26T09:06:43.285Z,2.97
2019-03-26T09:09:11.772Z,3.77
2019-03-26T09:11:40.175Z,3.20
2019-03-26T09:16:56.024Z,4.67
2019-03-26T09:19:24.420Z,3.87
2019-03-26T09:21:52.817Z,3.97
2019-03-26T09:24:40.338Z,3.77
2019-03-26T09:27:08.758Z,3.23
2019-03-26T09:29:56.275Z,3.30
2019-03-26T09:32:24.683Z,3.65
2019-03-26T09:34:53.080Z,3.90
2019-03-26T09:37:40.729Z,2.70
2019-03-26T09:40:49.040Z,4.30
2019-03-26T09:43:17.438Z,3.10
2019-03-26T09:53:28.269Z,3.20
2019-03-26T09:58:30.733Z,3.27
2019-03-26T10:08:52.401Z,3.53
2019-03-26T10:11:12.591Z,2.47
2019-03-26T10:13:40.991Z,2.53
2019-03-26T10:16:29.677Z,2.00
2019-03-26T10:18:58.766Z,2.83
2019-03-26T10:24:01.589Z,2.27
2019-03-26T10:26:49.107Z,2.30
2019-03-26T10:29:29.610Z,2.43
2019-03-26T10:31:47.626Z,2.57
2019-03-26T10:34:36.658Z,2.17
2019-03-26T10:39:59.632Z,3.20
2019-03-26T10:45:01.930Z,2.40
2019-03-26T10:47:49.588Z,3.30
2019-03-26T10:50:17.979Z,3.40
2019-03-26T10:52:46.384Z,2.90
2019-03-26T10:55:14.780Z,3.27
2019-03-26T10:57:43.196Z,3.00
2019-03-26T11:00:51.505Z,3.93
2019-03-26T11:03:19.919Z,3.00
2019-03-26T11:06:07.570Z,2.90
2019-03-26T11:08:35.975Z,3.20
2019-03-26T11:14:12.779Z,2.43
2019-03-26T11:19:34.657Z,2.67
2019-03-26T11:22:22.175Z,2.70
2019-03-26T11:24:50.568Z,3.20
2019-03-26T11:27:38.224Z,4.03
2019-03-26T11:30:46.560Z,2.70
2019-03-26T11:33:34.210Z,2.13
2019-03-26T11:38:50.050Z,1.10
2019-03-26T11:41:37.690Z,1.20
2019-03-26T11:44:06.093Z,0.90
2019-03-26T11:46:34.484Z,0.80
2019-03-26T11:49:02.893Z,1.10
2019-03-26T11:51:31.287Z,0.80
2019-03-26T11:54:18.934Z,1.10
2019-03-26T11:56:47.333Z,1.00
2019-03-26T11:59:34.985Z,1.43
2019-03-26T12:04:52.459Z,1.00
2019-03-26T12:07:20.856Z,1.07
2019-03-26T12:10:09.073Z,1.13
2019-03-26T12:15:51.563Z,0.80
2019-03-26T12:18:20.048Z,0.83
2019-03-26T12:21:07.889Z,1.00
2019-03-26T12:23:55.508Z,0.83
2019-03-26T12:26:24.002Z,1.00
2019-03-26T12:29:11.691Z,0.90
2019-03-26T12:31:40.109Z,1.13
2019-03-26T12:37:03.734Z,1.67
2019-03-26T12:39:32.174Z,1.20
2019-03-26T12:42:00.584Z,1.20
2019-03-26T12:44:29.030Z,2.10
2019-03-26T12:47:16.719Z,1.00
2019-03-26T12:49:45.217Z,1.20
2019-03-26T12:52:32.772Z,1.23
2019-03-26T12:55:01.195Z,1.10
2019-03-26T12:57:29.624Z,1.40
2019-03-26T12:59:58.111Z,1.33
2019-03-26T13:02:26.515Z,1.40
2019-03-26T13:04:55.012Z,2.40
2019-03-26T13:07:23.497Z,1.50
2019-03-26T13:09:51.945Z,1.70
2019-03-26T13:12:39.619Z,1.30
2019-03-26T13:18:02.456Z,2.00
2019-03-26T13:23:23.888Z,1.90
2019-03-26T13:25:52.382Z,2.57
2019-03-26T13:28:20.903Z,2.27
2019-03-26T13:30:49.392Z,2.60
2019-03-26T13:33:17.905Z,3.23
2019-03-26T13:36:26.274Z,2.37
2019-03-26T13:38:54.737Z,1.70
2019-03-26T13:41:23.193Z,1.43
2019-03-26T13:44:10.768Z,1.90
2019-03-26T13:52:01.567Z,1.50
2019-03-26T13:54:33.995Z,2.20
2019-03-26T13:57:07.382Z,1.63
2019-03-26T13:59:41.448Z,1.30
2019-03-26T14:02:22.146Z,1.17
2019-03-26T14:04:59.185Z,1.77
2019-03-26T14:07:35.522Z,1.30
2019-03-26T14:15:22.071Z,1.70
2019-03-26T14:17:50.507Z,1.50
2019-03-26T14:20:58.863Z,1.23
2019-03-26T14:23:27.271Z,1.87
2019-03-26T14:25:55.697Z,2.10
2019-03-26T14:28:24.103Z,1.63
2019-03-26T14:30:52.538Z,2.42
2019-03-26T14:33:40.142Z,1.83
2019-03-26T14:36:08.666Z,2.20
2019-03-26T14:38:37.127Z,1.87
2019-03-26T14:41:24.874Z,2.00
2019-03-26T14:43:53.525Z,1.60
2019-03-26T14:46:22.035Z,2.57
2019-03-26T14:51:37.893Z,1.93
2019-03-26T14:54:25.638Z,1.60
2019-03-26T14:56:54.051Z,1.50
2019-03-26T14:59:22.465Z,1.63
2019-03-26T15:01:50.917Z,2.42
2019-03-26T15:04:19.327Z,1.77
2019-03-26T15:06:47.838Z,1.90
2019-03-26T15:09:35.385Z,1.30
2019-03-26T15:12:11.504Z,1.70
2019-03-26T15:14:40.256Z,1.70
2019-03-26T15:19:56.172Z,1.20
2019-03-26T15:22:24.661Z,1.50
2019-03-26T15:25:12.234Z,1.63
2019-03-26T15:27:40.672Z,2.77
2019-03-26T15:30:49.022Z,1.47
2019-03-26T15:33:17.412Z,1.93
2019-03-26T15:35:45.850Z,1.70
2019-03-26T15:38:14.237Z,1.93
2019-03-26T15:41:01.978Z,1.90
2019-03-26T15:43:30.370Z,1.53
2019-03-26T15:45:58.776Z,1.50
2019-03-26T15:48:27.180Z,1.60
2019-03-26T15:53:29.887Z,1.70
2019-03-26T15:56:20.275Z,1.70
2019-03-26T15:59:05.645Z,2.27
2019-03-26T16:04:51.511Z,1.53
2019-03-26T16:10:30.251Z,1.53
2019-03-26T16:15:43.529Z,1.70
2019-03-26T16:18:20.522Z,1.70
2019-03-26T16:20:48.991Z,3.67
2019-03-26T16:23:36.578Z,2.10
2019-03-26T16:26:04.978Z,1.80
2019-03-26T16:28:33.374Z,1.73
2019-03-26T16:31:21.025Z,1.70
2019-03-26T16:33:49.418Z,3.10
2019-03-26T16:36:59.743Z,2.07
2019-03-26T16:39:27.928Z,1.93
2019-03-26T16:41:56.370Z,2.50
2019-03-26T16:44:43.906Z,1.83
2019-03-26T16:47:12.333Z,1.80
2019-03-26T16:49:40.717Z,2.87
2019-03-26T16:52:28.368Z,2.33
2019-03-26T16:54:56.926Z,2.03
2019-03-26T16:57:25.456Z,2.00
2019-03-26T16:59:53.947Z,2.03
2019-03-26T17:02:41.474Z,2.60
2019-03-26T17:05:49.783Z,2.67
2019-03-26T17:08:18.179Z,2.70
2019-03-26T17:10:48.642Z,2.70
2019-03-26T17:13:16.693Z,2.63
2019-03-26T17:15:45.101Z,3.03
2019-03-26T17:18:13.495Z,2.27
2019-03-26T17:20:41.910Z,3.00
2019-03-26T17:23:29.555Z,2.60
2019-03-26T17:26:17.207Z,2.27
2019-03-26T17:29:05.178Z,2.40
2019-03-26T17:31:39.585Z,3.30
2019-03-26T17:34:07.676Z,3.03
2019-03-26T17:39:09.972Z,2.63
2019-03-26T17:44:13.069Z,3.13
2019-03-26T17:46:41.474Z,3.00
2019-03-26T17:52:16.556Z,2.47
2019-03-26T17:54:44.997Z,3.67
2019-03-26T17:57:32.524Z,3.03
2019-03-26T18:00:00.919Z,2.83
2019-03-26T18:02:29.324Z,2.87
2019-03-26T18:05:37.625Z,2.73
2019-03-26T18:13:34.544Z,3.13
2019-03-26T18:16:02.958Z,2.80
2019-03-26T18:18:50.602Z,3.57
2019-03-26T18:21:50.976Z,3.23
2019-03-26T18:24:27.708Z,2.13
2019-03-26T18:27:15.364Z,2.83
2019-03-26T18:29:43.759Z,3.33
2019-03-26T18:32:12.172Z,3.00
2019-03-26T18:34:40.565Z,3.63
2019-03-26T18:37:28.231Z,3.70
2019-03-26T18:39:56.630Z,3.20
2019-03-26T18:42:25.056Z,3.23
2019-03-26T18:44:53.445Z,2.53
2019-03-26T18:47:41.089Z,2.50
2019-03-26T18:50:49.401Z,3.27
2019-03-26T18:53:17.802Z,3.97
2019-03-26T18:56:05.448Z,3.43
2019-03-26T18:58:53.129Z,3.47
2019-03-26T19:04:08.977Z,2.80
2019-03-26T19:06:56.508Z,3.50
2019-03-26T19:09:24.904Z,2.70
2019-03-26T19:12:12.559Z,3.20
2019-03-26T19:14:40.964Z,4.90
2019-03-26T19:17:09.378Z,6.53
2019-03-26T19:19:58.534Z,7.60
2019-03-26T19:22:46.268Z,3.80
2019-03-26T19:25:33.910Z,3.40
2019-03-26T19:28:02.328Z,3.40
2019-03-26T19:30:49.977Z,3.13
2019-03-26T19:33:18.380Z,3.37
2019-03-26T19:36:06.033Z,3.47
2019-03-26T19:41:08.136Z,2.97
2019-03-26T19:43:55.659Z,3.00
2019-03-26T19:46:24.054Z,3.00
2019-03-26T19:49:11.581Z,2.87
2019-03-26T19:51:39.979Z,4.50
2019-03-26T19:54:08.389Z,3.80
2019-03-26T19:56:55.906Z,4.90
2019-03-26T19:59:24.310Z,5.47
2019-03-26T20:01:52.716Z,4.73
2019-03-26T20:04:40.374Z,6.50
2019-03-26T20:07:08.766Z,5.00
2019-03-26T20:09:37.170Z,4.30
2019-03-26T20:12:24.837Z,5.27
2019-03-26T20:15:12.483Z,8.67
2019-03-26T20:18:00.133Z,3.87
2019-03-26T20:20:28.540Z,4.77
2019-03-26T20:25:44.383Z,3.63
2019-03-26T20:28:12.798Z,3.10
2019-03-26T20:31:00.321Z,4.50
2019-03-26T20:33:28.734Z,4.10
2019-03-26T20:35:57.128Z,3.80
2019-03-26T20:38:44.776Z,4.40
2019-03-26T20:41:32.427Z,3.80
2019-03-26T20:46:35.008Z,4.10
2019-03-26T20:49:03.419Z,4.73
2019-03-26T20:51:51.062Z,4.83
2019-03-26T20:54:38.588Z,5.30
2019-03-26T20:57:26.227Z,7.00
2019-03-26T21:00:13.950Z,5.20
2019-03-26T21:02:42.354Z,5.80
2019-03-26T21:05:50.662Z,4.80
2019-03-26T21:08:38.190Z,4.50
2019-03-26T21:11:06.582Z,5.13
2019-03-26T21:13:54.106Z,4.67
2019-03-26T21:19:09.952Z,4.00
2019-03-26T21:21:38.356Z,4.40
2019-03-26T21:24:25.909Z,3.60
2019-03-26T21:29:41.741Z,4.03
2019-03-26T21:32:10.144Z,4.60
2019-03-26T21:34:38.660Z,4.30
2019-03-26T21:37:08.958Z,4.37
2019-03-26T21:39:56.486Z,4.47
2019-03-26T21:42:24.976Z,4.53
2019-03-26T21:44:53.480Z,3.90
2019-03-26T21:47:21.872Z,3.90
2019-03-26T21:49:50.281Z,4.17
2019-03-26T21:52:18.685Z,4.60
2019-03-26T21:54:47.079Z,4.77
2019-03-26T22:02:57.775Z,3.70
2019-03-26T22:08:00.615Z,4.43
2019-03-26T22:10:48.144Z,4.20
2019-03-26T22:13:16.538Z,4.10
2019-03-26T22:16:04.055Z,3.80
2019-03-26T22:18:32.509Z,4.43
2019-03-26T22:23:35.564Z,4.23
2019-03-26T22:26:23.219Z,4.40
2019-03-26T22:28:51.627Z,4.93
2019-03-26T22:31:39.164Z,4.80
2019-03-26T22:34:07.808Z,5.03
2019-03-26T22:36:36.255Z,6.37
2019-03-26T22:39:44.600Z,5.30
2019-03-26T22:42:32.140Z,6.00
2019-03-26T22:45:00.598Z,8.17
2019-03-26T22:47:29.057Z,5.43
2019-03-26T22:49:57.532Z,7.00
2019-03-26T22:52:25.956Z,5.77
2019-03-26T22:54:54.493Z,5.27
2019-03-26T22:57:22.923Z,5.60
2019-03-26T22:59:51.466Z,5.63
2019-03-26T23:02:39.200Z,5.57
2019-03-26T23:05:47.551Z,5.70
2019-03-26T23:08:16.022Z,5.60
2019-03-26T23:10:44.465Z,5.80
2019-03-26T23:13:13.045Z,5.43
2019-03-26T23:15:41.609Z,6.33
2019-03-26T23:18:29.343Z,5.60
2019-03-26T23:23:51.441Z,6.13
2019-03-26T23:26:19.929Z,5.87
2019-03-26T23:29:08.166Z,5.77
2019-03-26T23:31:56.819Z,6.75
2019-03-26T23:34:44.463Z,5.93
2019-03-26T23:37:12.867Z,5.87
2019-03-26T23:39:41.263Z,6.70
2019-03-26T23:42:28.916Z,6.67
2019-03-26T23:44:58.672Z,7.10
2019-03-26T23:47:46.704Z,8.43
2019-03-26T23:50:55.041Z,6.40
2019-03-26T23:56:30.133Z,5.87
2019-03-26T23:58:58.532Z,6.23
